Time;durP1;ratioP1;P1;durP2;ratioP2;P2;SDS_P1;SDS_P2;PMS_P1;PMS_P2;Temp;Humidity;BMP_temperature;BMP_pressure;BME280_temperature;BME280_humidity;BME280_pressure;Samples;Min_cycle;Max_cycle;Signal;HPM_P1;HPM_P2
2023/09/02 00:02:31;;;;;;;9.18;7.53;;;19.50;75.50;;;;;;10409070;28;20029;-61
2023/09/02 00:07:32;;;;;;;10.43;7.97;;;19.50;75.50;;;;;;10409317;28;20021;-61
2023/09/02 00:12:33;;;;;;;8.98;7.18;;;19.50;75.50;;;;;;10408199;28;20041;-60
2023/09/02 00:17:35;;;;;;;10.82;7.65;;;19.50;75.40;;;;;;10408549;28;20033;-60
2023/09/02 00:22:36;;;;;;;11.23;8.27;;;19.50;75.50;;;;;;10421829;28;20033;-61
2023/09/02 00:27:36;;;;;;;9.10;7.85;;;19.50;75.50;;;;;;10433769;28;20075;-60
2023/09/02 00:32:37;;;;;;;9.10;7.20;;;19.50;75.40;;;;;;10425499;28;20381;-61
2023/09/02 00:37:38;;;;;;;10.27;7.60;;;19.50;75.50;;;;;;10408134;28;20052;-60
2023/09/02 00:42:40;;;;;;;9.15;7.82;;;19.50;75.50;;;;;;10407568;28;20452;-61
2023/09/02 00:47:40;;;;;;;9.40;7.93;;;19.50;75.40;;;;;;10412439;28;20036;-60
2023/09/02 00:52:41;;;;;;;9.15;7.32;;;19.50;75.40;;;;;;10413286;28;20037;-60
2023/09/02 00:57:44;;;;;;;8.40;6.95;;;19.50;75.30;;;;;;10407957;28;20029;-61
2023/09/02 01:02:46;;;;;;;9.18;7.72;;;19.50;75.30;;;;;;10415181;28;20060;-61
2023/09/02 01:07:49;;;;;;;9.10;8.25;;;19.50;75.30;;;;;;10407702;28;20025;-61
2023/09/02 01:12:51;;;;;;;9.50;8.35;;;19.50;75.30;;;;;;10415557;28;20102;-60
2023/09/02 01:17:51;;;;;;;9.02;7.80;;;19.50;75.30;;;;;;10407575;28;20033;-61
2023/09/02 01:23:09;;;;;;;8.23;6.68;;;19.40;75.20;;;;;;10406617;28;20029;-60
2023/09/02 01:28:18;;;;;;;9.15;7.22;;;19.50;75.40;;;;;;10436443;28;20107;-60
2023/09/02 01:33:21;;;;;;;8.48;7.55;;;19.50;75.30;;;;;;10419818;28;20586;-60
2023/09/02 01:38:24;;;;;;;9.00;7.57;;;19.50;75.30;;;;;;10421339;28;20033;-60
2023/09/02 01:43:29;;;;;;;9.43;7.28;;;19.50;76.00;;;;;;10414525;28;20242;-61
2023/09/02 01:48:31;;;;;;;9.82;7.75;;;19.50;75.40;;;;;;10414889;28;20376;-61
2023/09/02 01:53:31;;;;;;;9.00;7.53;;;19.40;75.30;;;;;;10425777;28;20032;-60
2023/09/02 01:58:32;;;;;;;8.27;7.22;;;19.40;75.30;;;;;;10426840;28;20029;-61
2023/09/02 02:03:50;;;;;;;8.80;7.75;;;19.40;75.30;;;;;;10413221;28;20112;-60
2023/09/02 02:09:03;;;;;;;9.48;7.53;;;19.50;75.30;;;;;;10446463;28;20441;-60
2023/09/02 02:14:05;;;;;;;8.43;7.45;;;19.50;75.40;;;;;;10453492;28;20045;-60
2023/09/02 02:19:06;;;;;;;8.93;7.22;;;19.40;75.20;;;;;;10454122;28;20159;-61
2023/09/02 02:24:07;;;;;;;9.32;7.63;;;19.40;75.20;;;;;;10444154;28;20183;-60
2023/09/02 02:29:08;;;;;;;9.90;7.07;;;19.50;75.30;;;;;;10417299;28;20507;-61
2023/09/02 02:34:08;;;;;;;8.55;7.47;;;19.40;75.90;;;;;;10412211;28;20025;-61
2023/09/02 02:39:09;;;;;;;10.15;7.57;;;19.40;75.30;;;;;;10425398;28;20040;-60
2023/09/02 02:44:10;;;;;;;7.90;7.13;;;19.40;75.30;;;;;;10440970;28;20492;-60
2023/09/02 02:49:11;;;;;;;9.27;8.25;;;19.40;75.30;;;;;;10453421;28;20029;-60
2023/09/02 02:54:12;;;;;;;9.38;8.02;;;19.40;75.30;;;;;;10452578;28;20040;-60
2023/09/02 02:59:13;;;;;;;8.98;8.05;;;19.40;75.30;;;;;;10452919;28;20025;-61
2023/09/02 03:04:14;;;;;;;9.40;7.47;;;19.40;75.20;;;;;;10452312;28;20029;-60
2023/09/02 03:09:15;;;;;;;9.25;6.88;;;19.40;75.30;;;;;;10452281;28;20041;-62
2023/09/02 03:14:16;;;;;;;9.55;7.50;;;19.40;75.30;;;;;;10451244;28;20064;-61
2023/09/02 03:19:17;;;;;;;9.18;8.18;;;19.40;75.30;;;;;;10451697;28;20029;-60
2023/09/02 03:24:17;;;;;;;9.90;7.63;;;19.40;75.20;;;;;;10440516;28;20034;-60
2023/09/02 03:29:18;;;;;;;9.65;7.22;;;19.40;75.20;;;;;;10415021;28;20468;-61
2023/09/02 03:34:19;;;;;;;9.10;7.57;;;19.40;75.20;;;;;;10409713;28;20037;-61
2023/09/02 03:39:20;;;;;;;8.15;7.25;;;19.40;75.20;;;;;;10409485;28;20036;-59
2023/09/02 03:44:20;;;;;;;10.38;8.10;;;19.40;75.20;;;;;;10409420;28;20026;-61
2023/09/02 03:49:21;;;;;;;8.90;7.57;;;19.40;75.20;;;;;;10409469;28;20038;-60
2023/09/02 03:54:22;;;;;;;7.88;6.28;;;19.40;75.20;;;;;;10407803;28;20465;-60
2023/09/02 03:59:23;;;;;;;9.02;6.50;;;19.40;75.20;;;;;;10428219;28;20030;-60
2023/09/02 04:04:25;;;;;;;9.77;7.22;;;19.40;75.20;;;;;;10424463;28;20021;-61
2023/09/02 04:09:27;;;;;;;8.13;6.75;;;19.40;75.30;;;;;;10424050;28;20029;-60
2023/09/02 04:14:28;;;;;;;8.55;6.82;;;19.40;75.30;;;;;;10424055;28;20098;-61
2023/09/02 04:19:29;;;;;;;9.05;7.35;;;19.40;75.30;;;;;;10424206;28;20071;-60
2023/09/02 04:24:29;;;;;;;9.15;8.10;;;19.40;75.30;;;;;;10425571;28;20080;-61
2023/09/02 04:29:30;;;;;;;8.48;7.45;;;19.40;75.20;;;;;;10424262;28;20381;-60
2023/09/02 04:34:31;;;;;;;8.57;7.57;;;19.40;75.20;;;;;;10423131;28;20029;-60
2023/09/02 04:39:32;;;;;;;6.97;6.28;;;19.40;75.20;;;;;;10423832;28;20074;-60
2023/09/02 04:44:32;;;;;;;8.23;7.15;;;19.40;75.20;;;;;;10425766;28;20029;-60
2023/09/02 04:49:33;;;;;;;8.73;7.35;;;19.40;75.30;;;;;;10404015;28;20041;-61
2023/09/02 04:54:34;;;;;;;8.50;7.15;;;19.40;75.20;;;;;;10405760;28;20059;-61
2023/09/02 04:59:34;;;;;;;9.23;7.95;;;19.40;75.20;;;;;;10407851;28;20036;-60
2023/09/02 05:04:35;;;;;;;8.50;7.18;;;19.40;75.50;;;;;;10409797;28;20496;-60
2023/09/02 05:09:36;;;;;;;9.10;6.82;;;19.40;75.20;;;;;;10415619;28;20029;-61
2023/09/02 05:14:39;;;;;;;10.05;7.00;;;19.40;75.90;;;;;;10416257;28;20053;-61
2023/09/02 05:19:40;;;;;;;9.50;7.63;;;19.60;75.70;;;;;;10416646;28;20508;-61
2023/09/02 05:24:41;;;;;;;9.90;7.25;;;19.80;75.40;;;;;;10415595;28;20075;-61
2023/09/02 05:29:41;;;;;;;11.65;6.93;;;19.80;76.00;;;;;;10444106;28;20036;-60
2023/09/02 05:34:43;;;;;;;11.77;7.78;;;19.90;76.00;;;;;;10414440;28;20178;-61
2023/09/02 05:39:44;;;;;;;8.68;6.38;;;19.90;75.50;;;;;;10414630;28;20029;-59
2023/09/02 05:44:45;;;;;;;17.08;8.20;;;19.90;75.70;;;;;;10414223;28;20037;-61
2023/09/02 05:49:45;;;;;;;17.50;7.50;;;20.00;75.50;;;;;;10421505;28;20575;-59
2023/09/02 05:54:46;;;;;;;12.23;6.45;;;20.00;75.80;;;;;;10413991;28;20485;-59
2023/09/02 05:59:47;;;;;;;14.95;7.85;;;19.90;75.70;;;;;;10415262;28;20044;-60
2023/09/02 06:04:48;;;;;;;15.30;6.88;;;20.00;76.00;;;;;;10413769;28;20017;-59
2023/09/02 06:09:48;;;;;;;8.75;7.30;;;19.90;76.10;;;;;;10413707;28;20048;-59
2023/09/02 06:14:49;;;;;;;14.27;6.93;;;19.90;76.20;;;;;;10412395;28;20053;-59
2023/09/02 06:19:50;;;;;;;20.42;8.18;;;19.90;76.40;;;;;;10427481;28;20036;-59
2023/09/02 06:24:55;;;;;;;25.38;8.60;;;19.90;76.50;;;;;;10428201;28;20040;-58
2023/09/02 06:29:56;;;;;;;15.50;7.47;;;19.90;76.20;;;;;;10430805;28;20033;-59
2023/09/02 06:34:57;;;;;;;15.00;7.05;;;19.90;76.20;;;;;;10452621;28;20037;-59
2023/09/02 06:39:58;;;;;;;15.75;7.15;;;19.80;76.40;;;;;;10453413;28;20111;-58
2023/09/02 06:44:59;;;;;;;19.52;7.25;;;19.80;76.50;;;;;;10452839;28;20040;-58
2023/09/02 06:50:00;;;;;;;14.00;7.07;;;19.80;76.60;;;;;;10453391;28;20515;-58
2023/09/02 06:55:00;;;;;;;13.40;5.70;;;19.70;76.70;;;;;;10452576;28;20079;-60
2023/09/02 07:00:01;;;;;;;16.58;6.72;;;19.70;76.60;;;;;;10428359;28;20080;-59
2023/09/02 07:05:02;;;;;;;16.90;7.95;;;19.70;76.80;;;;;;10410953;28;20428;-59
2023/09/02 07:10:05;;;;;;;17.25;7.50;;;19.70;76.70;;;;;;10410957;28;20038;-58
2023/09/02 07:15:07;;;;;;;25.95;8.75;;;19.70;76.70;;;;;;10438454;28;20048;-59
2023/09/02 07:20:08;;;;;;;15.35;7.45;;;19.70;77.10;;;;;;10452082;28;20128;-61
2023/09/02 07:25:09;;;;;;;15.15;7.20;;;19.70;77.00;;;;;;10433430;28;20028;-59
2023/09/02 07:30:10;;;;;;;28.02;9.93;;;19.70;77.00;;;;;;10414890;28;20540;-61
2023/09/02 07:35:11;;;;;;;16.52;8.18;;;19.70;77.40;;;;;;10412333;28;20053;-60
2023/09/02 07:40:13;;;;;;;33.17;9.45;;;19.70;77.20;;;;;;10420941;28;20041;-60
2023/09/02 07:45:14;;;;;;;21.70;8.43;;;19.70;77.10;;;;;;10427779;28;20021;-60
2023/09/02 07:50:15;;;;;;;20.63;7.95;;;19.70;77.10;;;;;;10416345;28;20033;-58
2023/09/02 07:55:16;;;;;;;19.30;8.93;;;19.70;77.10;;;;;;10450057;28;20029;-57
2023/09/02 08:00:17;;;;;;;26.02;8.40;;;19.70;77.00;;;;;;10449351;28;20025;-59
2023/09/02 08:05:17;;;;;;;19.17;7.00;;;19.70;77.20;;;;;;10417108;28;20648;-59
2023/09/02 08:10:18;;;;;;;24.35;9.80;;;19.80;76.90;;;;;;10437431;28;20025;-59
2023/09/02 08:15:19;;;;;;;15.30;8.77;;;20.00;76.30;;;;;;10436280;28;20106;-59
2023/09/02 08:20:20;;;;;;;21.73;8.30;;;19.80;76.80;;;;;;10411210;28;20436;-59
2023/09/02 08:25:21;;;;;;;16.88;8.07;;;19.80;77.10;;;;;;10405614;28;20040;-59
2023/09/02 08:30:22;;;;;;;18.73;8.50;;;19.90;77.10;;;;;;10411101;28;20112;-59
2023/09/02 08:35:23;;;;;;;13.27;6.95;;;20.00;76.70;;;;;;10407317;28;20025;-59
2023/09/02 08:40:23;;;;;;;14.80;6.90;;;19.90;76.90;;;;;;10413105;28;20033;-59
2023/09/02 08:45:26;;;;;;;23.77;7.57;;;19.80;77.10;;;;;;10456246;28;20029;-59
2023/09/02 08:50:28;;;;;;;13.88;7.88;;;19.80;77.20;;;;;;10425627;28;20120;-58
2023/09/02 08:55:31;;;;;;;13.95;7.10;;;19.80;77.10;;;;;;10456879;28;20037;-59
2023/09/02 09:00:33;;;;;;;18.65;8.40;;;19.80;77.10;;;;;;10452906;28;20025;-58
2023/09/02 09:05:34;;;;;;;13.05;6.53;;;19.80;77.20;;;;;;10424545;28;20039;-59
2023/09/02 09:10:36;;;;;;;10.70;6.18;;;19.80;77.20;;;;;;10423579;28;20524;-59
2023/09/02 09:15:38;;;;;;;13.68;7.03;;;19.90;77.20;;;;;;10425464;28;20053;-59
2023/09/02 09:20:39;;;;;;;9.90;6.05;;;19.90;77.10;;;;;;10423905;28;20057;-59
2023/09/02 09:25:42;;;;;;;17.05;6.75;;;19.90;77.10;;;;;;10424754;28;20420;-60
2023/09/02 09:30:43;;;;;;;13.85;6.82;;;19.80;77.10;;;;;;10432707;28;20029;-59
2023/09/02 09:35:43;;;;;;;8.18;6.85;;;19.90;77.20;;;;;;10414011;28;20029;-60
2023/09/02 09:40:44;;;;;;;13.13;7.30;;;19.90;77.10;;;;;;10415765;28;20033;-59
2023/09/02 09:45:52;;;;;;;10.10;7.40;;;19.80;77.10;;;;;;10454945;28;20032;-60
2023/09/02 09:50:53;;;;;;;12.70;7.65;;;19.80;77.20;;;;;;10440835;28;20028;-59
2023/09/02 18:11:16;;;;;;;8.75;6.32;;;20.60;80.20;;;;;;10590395;27;20441;-58
2023/09/02 18:16:17;;;;;;;14.85;7.13;;;20.60;80.50;;;;;;10532250;28;20052;-57
2023/09/02 18:21:18;;;;;;;9.57;6.57;;;20.60;80.40;;;;;;10567805;28;20028;-57
2023/09/02 18:26:19;;;;;;;9.10;5.95;;;20.60;80.40;;;;;;10568240;28;20039;-57
2023/09/02 18:31:21;;;;;;;9.65;6.10;;;20.60;80.50;;;;;;10568734;28;20502;-56
2023/09/02 18:36:22;;;;;;;8.13;5.32;;;20.60;81.10;;;;;;10549923;28;20028;-59
2023/09/02 18:41:23;;;;;;;8.88;6.00;;;20.50;80.50;;;;;;10568433;28;20031;-60
2023/09/02 18:46:24;;;;;;;11.63;5.63;;;20.50;80.40;;;;;;10567710;28;20055;-56
2023/09/02 18:51:25;;;;;;;8.18;5.32;;;20.50;80.20;;;;;;10567924;28;20047;-58
2023/09/02 18:56:27;;;;;;;7.30;5.38;;;20.50;80.10;;;;;;10566377;28;20027;-59
2023/09/02 19:01:27;;;;;;;11.02;6.18;;;20.50;80.20;;;;;;10534006;28;20023;-60
2023/09/02 19:06:33;;;;;;;9.40;6.03;;;20.50;80.50;;;;;;10564021;28;20035;-61
2023/09/02 19:11:34;;;;;;;8.77;5.43;;;20.50;80.50;;;;;;10545320;28;20023;-59
2023/09/02 19:16:34;;;;;;;13.18;5.38;;;20.50;80.50;;;;;;10560137;28;20039;-57
2023/09/02 19:21:35;;;;;;;10.88;4.88;;;20.50;80.40;;;;;;10539050;28;20028;-57
2023/09/02 19:26:36;;;;;;;10.32;4.88;;;20.50;80.40;;;;;;10532148;28;20047;-57
2023/09/02 19:31:37;;;;;;;10.45;5.95;;;20.50;80.40;;;;;;10535468;28;20475;-57
2023/09/02 19:36:38;;;;;;;8.93;6.28;;;20.50;80.40;;;;;;10530536;28;20020;-57
2023/09/02 19:41:39;;;;;;;9.52;5.68;;;20.50;80.40;;;;;;10522016;28;20028;-58
2023/09/02 19:46:43;;;;;;;7.95;5.88;;;20.50;80.40;;;;;;10522416;28;20294;-57
2023/09/02 19:51:43;;;;;;;7.75;5.10;;;20.50;80.40;;;;;;10499775;28;20028;-57
2023/09/02 19:56:44;;;;;;;9.85;5.82;;;20.50;80.20;;;;;;10506605;28;20442;-57
2023/09/02 20:01:45;;;;;;;7.50;5.90;;;20.50;80.20;;;;;;10520535;28;20039;-58
2023/09/02 20:06:46;;;;;;;8.63;5.07;;;20.50;80.40;;;;;;10536366;28;20044;-58
2023/09/02 20:11:46;;;;;;;12.32;5.05;;;20.40;80.40;;;;;;10497753;28;20091;-58
2023/09/02 20:16:47;;;;;;;5.63;4.18;;;20.40;80.40;;;;;;10536323;28;20036;-57
2023/09/02 20:21:48;;;;;;;8.45;4.85;;;20.40;80.30;;;;;;10536723;28;20051;-58
2023/09/02 20:26:48;;;;;;;6.72;4.38;;;20.40;80.30;;;;;;10522239;28;20032;-58
2023/09/02 20:31:50;;;;;;;6.50;4.93;;;20.30;80.20;;;;;;10535079;28;20031;-58
2023/09/02 20:36:51;;;;;;;9.75;4.80;;;20.30;80.10;;;;;;10535574;28;20082;-57
2023/09/02 20:41:52;;;;;;;6.30;4.32;;;20.30;80.00;;;;;;10535690;28;20054;-58
2023/09/02 20:46:52;;;;;;;5.50;4.07;;;20.30;79.90;;;;;;10534908;28;20032;-57
2023/09/02 20:51:53;;;;;;;5.53;4.18;;;20.30;79.80;;;;;;10517030;28;20024;-57
2023/09/02 20:56:54;;;;;;;5.38;4.03;;;20.30;79.70;;;;;;10534519;28;20028;-58
2023/09/02 21:01:55;;;;;;;6.45;4.97;;;20.30;79.60;;;;;;10535090;28;20039;-57
2023/09/02 21:06:55;;;;;;;5.75;4.53;;;20.30;79.50;;;;;;10533904;28;20055;-59
2023/09/02 21:11:56;;;;;;;6.85;4.03;;;20.30;79.30;;;;;;10516297;28;20472;-58
2023/09/02 21:16:57;;;;;;;5.82;4.35;;;20.30;79.30;;;;;;10531953;28;20089;-58
2023/09/02 21:21:57;;;;;;;5.47;4.00;;;20.20;79.10;;;;;;10515784;28;20028;-58
2023/09/02 21:26:58;;;;;;;5.65;4.35;;;20.20;79.00;;;;;;10519783;28;20032;-57
2023/09/02 21:32:00;;;;;;;4.70;4.18;;;20.20;78.90;;;;;;10515444;28;20039;-57
2023/09/02 21:37:01;;;;;;;5.97;4.88;;;20.20;78.80;;;;;;10533227;28;20067;-57
2023/09/02 21:42:02;;;;;;;7.28;5.03;;;20.20;78.90;;;;;;10532944;28;20028;-57
2023/09/02 21:47:03;;;;;;;6.38;4.78;;;20.20;78.80;;;;;;10532600;28;20476;-57
2023/09/02 21:52:04;;;;;;;5.00;4.00;;;20.20;78.70;;;;;;10533129;28;20118;-57
2023/09/02 21:57:05;;;;;;;4.57;4.00;;;20.20;78.60;;;;;;10532774;28;20107;-58
2023/09/02 22:02:05;;;;;;;6.47;4.07;;;20.20;78.60;;;;;;10532905;28;20111;-57
2023/09/02 22:07:07;;;;;;;6.95;4.65;;;20.20;78.60;;;;;;10532237;28;20078;-59
2023/09/02 22:12:07;;;;;;;5.97;4.75;;;20.20;78.50;;;;;;10532740;28;20119;-58
2023/09/02 22:17:08;;;;;;;4.30;3.90;;;20.20;78.40;;;;;;10532515;28;20024;-57
2023/09/02 22:22:09;;;;;;;4.55;4.15;;;20.20;78.30;;;;;;10532647;28;20065;-57
2023/09/02 22:27:09;;;;;;;4.45;4.05;;;20.20;78.30;;;;;;10518283;28;20032;-58
2023/09/02 22:32:10;;;;;;;5.15;4.25;;;20.20;78.30;;;;;;10514271;28;20413;-57
2023/09/02 22:37:11;;;;;;;4.70;4.07;;;20.20;78.20;;;;;;10513395;28;20031;-56
2023/09/02 22:42:11;;;;;;;5.75;3.97;;;20.20;78.20;;;;;;10514173;28;20031;-58
2023/09/02 22:47:12;;;;;;;5.03;4.07;;;20.20;78.10;;;;;;10531647;28;20028;-57
2023/09/02 22:52:13;;;;;;;5.35;3.78;;;20.20;78.00;;;;;;10532404;28;20043;-57
2023/09/02 22:57:14;;;;;;;7.13;4.63;;;20.20;77.90;;;;;;10537791;28;20024;-57
2023/09/02 23:02:14;;;;;;;5.35;3.95;;;20.10;77.80;;;;;;10521620;28;20459;-57
2023/09/02 23:07:15;;;;;;;4.25;3.55;;;20.10;77.80;;;;;;10538841;28;20056;-57
2023/09/02 23:12:16;;;;;;;5.15;4.18;;;20.10;77.70;;;;;;10520906;28;20024;-58
2023/09/02 23:17:17;;;;;;;4.25;3.55;;;20.10;77.70;;;;;;10520537;28;20036;-57
2023/09/02 23:22:17;;;;;;;5.28;4.40;;;20.10;77.60;;;;;;10520595;28;20024;-58
2023/09/02 23:27:18;;;;;;;3.92;3.25;;;20.10;77.50;;;;;;10519989;28;20036;-59
2023/09/02 23:32:20;;;;;;;4.65;3.92;;;20.10;77.60;;;;;;10538220;28;20442;-58
2023/09/02 23:37:21;;;;;;;4.40;3.70;;;20.10;77.50;;;;;;10520339;28;20035;-58
2023/09/02 23:42:22;;;;;;;4.07;3.67;;;20.10;77.40;;;;;;10537736;28;20028;-57
2023/09/02 23:47:23;;;;;;;4.35;3.85;;;20.10;77.40;;;;;;10537964;28;20040;-58
2023/09/02 23:52:23;;;;;;;6.22;4.20;;;20.10;77.40;;;;;;10537471;28;20031;-57
2023/09/02 23:57:24;;;;;;;4.47;3.75;;;20.00;77.20;;;;;;10537494;28;20054;-57
